Time;durP1;ratioP1;P1;durP2;ratioP2;P2;SDS_P1;SDS_P2;PMS_P1;PMS_P2;Temp;Humidity;BMP_temperature;BMP_pressure;BME280_temperature;BME280_humidity;BME280_pressure;Samples;Min_cycle;Max_cycle;Signal;HPM_P1;HPM_P2
2022/01/27 00:04:29;;;;;;;25.73;10.18;;;7.20;99.40;;;;;;10516830;28;20351;-66
2022/01/27 00:10:04;;;;;;;25.80;10.57;;;7.20;99.30;;;;;;10531706;28;20066;-66
2022/01/27 00:15:10;;;;;;;25.25;9.88;;;7.20;99.30;;;;;;10526792;28;20032;-65
2022/01/27 00:20:13;;;;;;;26.17;11.30;;;7.20;99.30;;;;;;10515518;28;20029;-66
2022/01/27 00:25:14;;;;;;;24.92;10.57;;;7.20;99.30;;;;;;10519793;28;20366;-65
2022/01/27 00:30:15;;;;;;;20.95;9.65;;;7.20;99.40;;;;;;10526840;28;20024;-66
2022/01/27 00:35:15;;;;;;;24.20;9.98;;;7.30;99.40;;;;;;10526592;28;20034;-64
2022/01/27 00:40:16;;;;;;;25.77;10.55;;;7.20;99.30;;;;;;10521479;28;20024;-65
2022/01/27 00:45:17;;;;;;;27.25;9.77;;;7.20;99.40;;;;;;10517925;28;20059;-66
2022/01/27 00:50:19;;;;;;;23.15;9.65;;;7.20;99.30;;;;;;10525989;28;20020;-64
2022/01/27 00:55:22;;;;;;;21.73;9.43;;;7.20;99.30;;;;;;10514466;28;20078;-65
2022/01/27 01:00:30;;;;;;;24.00;9.75;;;7.20;99.30;;;;;;10528420;28;20421;-66
2022/01/27 01:16:12;;;;;;;20.98;8.95;;;7.20;99.30;;;;;;10526480;28;20197;-65
2022/01/27 01:21:31;;;;;;;25.05;8.82;;;7.20;99.30;;;;;;10533699;28;20044;-66
2022/01/27 01:32:12;;;;;;;;;;;7.20;99.30;;;;;;10521578;28;20555;-65
2022/01/27 01:37:17;;;;;;;20.13;9.27;;;7.40;99.40;;;;;;10532233;28;19927;-65
2022/01/27 01:42:17;;;;;;;24.08;9.57;;;7.20;99.30;;;;;;10516849;28;20454;-64
2022/01/27 01:47:20;;;;;;;22.80;9.27;;;7.20;99.30;;;;;;10509482;28;20052;-65
2022/01/27 01:52:21;;;;;;;25.60;9.63;;;7.20;99.30;;;;;;10516794;28;20047;-65
2022/01/27 01:57:23;;;;;;;22.50;9.55;;;7.20;99.30;;;;;;10523292;28;20561;-66
2022/01/27 02:02:23;;;;;;;18.25;8.55;;;7.20;99.30;;;;;;10507435;28;20033;-66
2022/01/27 02:18:00;;;;;;;21.55;8.75;;;7.20;99.30;;;;;;10520643;28;20096;-65
2022/01/27 02:23:04;;;;;;;22.70;9.45;;;7.30;99.30;;;;;;10527203;28;20050;-64
2022/01/27 02:28:05;;;;;;;24.67;10.00;;;7.20;99.60;;;;;;10526885;28;20382;-65
2022/01/27 02:33:06;;;;;;;22.70;9.75;;;7.20;99.30;;;;;;10530505;28;20032;-64
2022/01/27 02:38:06;;;;;;;25.60;9.65;;;7.20;99.30;;;;;;10527928;28;20028;-63
2022/01/27 02:43:07;;;;;;;20.23;8.27;;;7.20;99.30;;;;;;10530536;28;20025;-65
2022/01/27 02:48:10;;;;;;;20.45;9.13;;;7.20;99.30;;;;;;10515919;28;20052;-65
2022/01/27 02:53:11;;;;;;;22.58;9.07;;;7.20;99.30;;;;;;10508357;28;20501;-64
2022/01/27 02:58:12;;;;;;;23.95;10.10;;;7.20;99.40;;;;;;10522609;28;20020;-65
2022/01/27 03:03:13;;;;;;;23.05;9.70;;;7.20;99.30;;;;;;10529678;28;20028;-65
2022/01/27 03:08:13;;;;;;;19.58;8.50;;;7.20;99.30;;;;;;10538892;28;20039;-65
2022/01/27 03:13:15;;;;;;;20.63;9.23;;;7.20;99.30;;;;;;10524523;28;20078;-65
2022/01/27 03:18:15;;;;;;;19.77;9.15;;;7.20;99.30;;;;;;10530060;28;20100;-65
2022/01/27 03:23:16;;;;;;;22.60;8.57;;;7.20;99.30;;;;;;10531289;28;20119;-65
2022/01/27 03:28:19;;;;;;;21.02;9.30;;;7.20;99.30;;;;;;10529473;28;20475;-66
2022/01/27 03:33:19;;;;;;;20.85;9.20;;;7.20;99.30;;;;;;10528835;28;20080;-65
2022/01/27 03:38:20;;;;;;;23.80;9.68;;;7.20;99.30;;;;;;10528636;28;20100;-62
2022/01/27 03:43:21;;;;;;;22.95;8.73;;;7.20;99.30;;;;;;10515979;28;20024;-65
2022/01/27 03:48:22;;;;;;;23.23;9.32;;;7.20;99.30;;;;;;10503678;28;20418;-63
2022/01/27 03:53:23;;;;;;;21.95;8.65;;;7.20;99.30;;;;;;10473278;28;20409;-65
2022/01/27 03:58:24;;;;;;;21.50;8.70;;;7.20;99.30;;;;;;10493302;28;20056;-66
2022/01/27 04:03:27;;;;;;;23.05;9.35;;;7.20;99.30;;;;;;10485783;28;20082;-66
2022/01/27 04:08:27;;;;;;;24.67;9.35;;;7.20;99.30;;;;;;10494606;28;20056;-66
2022/01/27 04:13:28;;;;;;;23.98;9.65;;;7.20;99.30;;;;;;10483796;28;20051;-65
2022/01/27 04:18:29;;;;;;;20.13;8.38;;;7.20;99.30;;;;;;10490390;28;20552;-65
2022/01/27 04:23:30;;;;;;;23.88;9.90;;;7.20;99.30;;;;;;10484660;28;20189;-65
2022/01/27 04:28:33;;;;;;;20.25;9.05;;;7.20;99.30;;;;;;10492643;28;20024;-65
2022/01/27 04:33:36;;;;;;;24.38;8.80;;;7.30;99.30;;;;;;10481814;28;20466;-64
2022/01/27 04:38:48;;;;;;;23.40;8.98;;;7.30;99.50;;;;;;10484291;28;20020;-65
2022/01/27 04:48:54;;;;;;;23.52;8.95;;;7.30;99.30;;;;;;10523671;28;20043;-64
2022/01/27 04:59:07;;;;;;;21.92;9.02;;;7.30;99.30;;;;;;10531189;28;20023;-66
2022/01/27 05:04:12;;;;;;;20.30;8.52;;;7.30;99.30;;;;;;10516252;28;20036;-66
2022/01/27 05:09:13;;;;;;;19.90;8.63;;;7.30;99.30;;;;;;10552261;28;20084;-65
2022/01/27 05:14:20;;;;;;;23.33;9.07;;;7.30;99.30;;;;;;10533561;28;20104;-66
2022/01/27 05:19:21;;;;;;;20.75;8.50;;;7.30;99.30;;;;;;10527462;28;20028;-65
2022/01/27 05:24:22;;;;;;;20.88;9.05;;;7.40;99.30;;;;;;10532795;28;20352;-64
2022/01/27 05:29:23;;;;;;;25.00;9.15;;;7.40;99.30;;;;;;10534046;28;20032;-65
2022/01/27 05:34:23;;;;;;;21.70;9.10;;;7.50;99.40;;;;;;10517418;28;20469;-67
2022/01/27 05:39:24;;;;;;;22.52;9.30;;;7.30;99.30;;;;;;10520078;28;20459;-64
2022/01/27 05:44:25;;;;;;;18.83;8.60;;;7.30;99.30;;;;;;10519701;28;20040;-66
2022/01/27 05:49:26;;;;;;;20.65;8.50;;;7.30;99.30;;;;;;10524433;28;20044;-66
2022/01/27 05:54:27;;;;;;;18.90;7.80;;;7.30;99.30;;;;;;10517213;28;20039;-65
2022/01/27 05:59:28;;;;;;;16.42;8.13;;;7.30;99.30;;;;;;10519345;28;20044;-65
2022/01/27 06:04:28;;;;;;;19.13;8.38;;;7.30;99.30;;;;;;10517899;28;20559;-65
2022/01/27 06:09:29;;;;;;;23.13;8.40;;;7.30;99.40;;;;;;10545455;28;20020;-64
2022/01/27 06:14:30;;;;;;;21.55;7.78;;;7.30;99.40;;;;;;10513196;28;20107;-66
2022/01/27 06:19:30;;;;;;;18.95;8.18;;;7.30;99.50;;;;;;10530055;28;20450;-67
2022/01/27 06:24:31;;;;;;;19.27;7.43;;;7.40;99.50;;;;;;10514730;28;20043;-65
2022/01/27 06:29:32;;;;;;;16.73;7.95;;;7.50;99.50;;;;;;10528167;28;20457;-65
2022/01/27 06:34:33;;;;;;;19.70;7.82;;;7.30;99.70;;;;;;10526390;28;20056;-64
2022/01/27 06:39:34;;;;;;;15.98;7.50;;;7.30;99.50;;;;;;10529763;28;20036;-65
2022/01/27 06:44:36;;;;;;;19.17;8.13;;;7.40;99.50;;;;;;10517579;28;20055;-65
2022/01/27 06:49:36;;;;;;;19.65;7.50;;;7.40;99.60;;;;;;10515064;28;20498;-65
2022/01/27 06:54:37;;;;;;;22.83;8.18;;;7.40;99.70;;;;;;10531238;28;20467;-65
2022/01/27 06:59:38;;;;;;;20.17;8.35;;;7.40;99.60;;;;;;10523715;28;20028;-66
2022/01/27 07:04:42;;;;;;;22.10;8.30;;;7.40;99.60;;;;;;10504155;28;20040;-63
2022/01/27 07:09:42;;;;;;;18.63;6.68;;;7.40;99.70;;;;;;10511607;28;20028;-63
2022/01/27 07:14:43;;;;;;;18.30;7.40;;;7.40;99.70;;;;;;10522112;28;20035;-64
2022/01/27 07:19:44;;;;;;;18.90;7.93;;;7.40;99.70;;;;;;10534629;28;20024;-64
2022/01/27 07:24:45;;;;;;;21.95;8.25;;;7.40;99.70;;;;;;10501170;28;20060;-65
2022/01/27 07:29:46;;;;;;;18.30;7.00;;;7.40;99.80;;;;;;10526153;28;20115;-63
2022/01/27 07:34:47;;;;;;;18.13;7.53;;;7.40;99.80;;;;;;10525655;28;20028;-64
2022/01/27 07:39:47;;;;;;;17.77;7.63;;;7.40;99.80;;;;;;10514863;28;20363;-64
2022/01/27 07:44:48;;;;;;;16.38;6.72;;;7.40;99.80;;;;;;10494693;28;20040;-64
2022/01/27 07:49:49;;;;;;;19.25;7.93;;;7.40;99.80;;;;;;10524388;28;20040;-63
2022/01/27 07:54:50;;;;;;;16.85;6.80;;;7.50;99.90;;;;;;10508161;28;20294;-64
2022/01/27 07:59:50;;;;;;;16.25;6.80;;;7.50;99.90;;;;;;10526998;28;20019;-64
2022/01/27 08:04:51;;;;;;;16.20;7.30;;;7.50;99.90;;;;;;10493708;28;20069;-64
2022/01/27 08:09:51;;;;;;;15.13;6.35;;;7.50;99.90;;;;;;10494122;28;20533;-64
2022/01/27 08:14:52;;;;;;;16.38;6.60;;;7.50;99.90;;;;;;10475204;28;20040;-64
2022/01/27 08:19:53;;;;;;;16.27;6.10;;;7.50;99.90;;;;;;10493797;28;20037;-64
2022/01/27 08:24:53;;;;;;;14.48;5.97;;;7.50;99.90;;;;;;10491484;28;20491;-63
2022/01/27 08:29:59;;;;;;;17.13;6.18;;;7.50;99.90;;;;;;10486800;28;20160;-63
2022/01/27 08:35:00;;;;;;;13.88;5.43;;;7.50;99.90;;;;;;10501170;28;20028;-64
2022/01/27 08:40:01;;;;;;;13.55;5.95;;;7.50;99.90;;;;;;10504307;28;20029;-64
2022/01/27 08:45:01;;;;;;;12.68;5.47;;;7.50;99.90;;;;;;10512333;28;20088;-64
2022/01/27 08:50:04;;;;;;;13.40;5.40;;;7.60;99.90;;;;;;10502632;28;20009;-64
2022/01/27 08:55:07;;;;;;;12.02;5.18;;;7.60;99.90;;;;;;10537610;28;20092;-64
2022/01/27 09:00:10;;;;;;;11.77;5.82;;;7.60;99.90;;;;;;10550639;28;20355;-64
2022/01/27 09:05:11;;;;;;;12.25;5.22;;;7.60;99.90;;;;;;10535381;28;20481;-66
2022/01/27 09:10:12;;;;;;;17.27;5.93;;;7.60;99.90;;;;;;10522566;28;20024;-64
2022/01/27 09:15:12;;;;;;;9.93;4.82;;;7.70;99.90;;;;;;10511973;28;20028;-64
2022/01/27 09:20:15;;;;;;;9.60;4.53;;;7.70;99.90;;;;;;10531854;28;20615;-64
2022/01/27 09:25:21;;;;;;;12.50;4.82;;;7.90;99.90;;;;;;10515698;28;20032;-65
2022/01/27 09:30:21;;;;;;;14.43;5.80;;;7.80;99.90;;;;;;10514368;28;20051;-65
2022/01/27 09:35:22;;;;;;;11.18;5.43;;;7.90;99.90;;;;;;10535237;28;20020;-65
2022/01/27 09:40:24;;;;;;;13.32;4.78;;;7.80;99.90;;;;;;10531861;28;20576;-63
2022/01/27 09:45:26;;;;;;;9.65;4.47;;;7.80;99.90;;;;;;10513260;28;20274;-63
2022/01/27 09:55:36;;;;;;;;;;;8.00;99.90;;;;;;10530671;28;20098;-66
2022/01/27 10:00:37;;;;;;;8.00;4.07;;;8.00;99.90;;;;;;10538149;28;20378;-65
2022/01/27 10:05:38;;;;;;;9.23;4.00;;;8.00;99.90;;;;;;10533661;28;20047;-65
2022/01/27 10:10:44;;;;;;;9.85;3.47;;;8.00;99.90;;;;;;10542955;28;20577;-65
2022/01/27 10:15:46;;;;;;;9.20;3.72;;;8.00;99.90;;;;;;10531353;28;20422;-65
2022/01/27 10:20:52;;;;;;;8.07;3.83;;;8.00;99.90;;;;;;10530683;28;20020;-65
2022/01/27 10:25:57;;;;;;;8.75;3.40;;;8.00;99.90;;;;;;10510397;28;20493;-65
2022/01/27 10:31:24;;;;;;;10.15;3.40;;;8.10;99.90;;;;;;10518202;28;20035;-65
2022/01/27 10:36:26;;;;;;;6.82;3.63;;;8.10;99.90;;;;;;10526387;28;20039;-65
2022/01/27 10:41:30;;;;;;;6.30;3.33;;;8.10;99.90;;;;;;10517555;28;20432;-64
2022/01/27 10:46:31;;;;;;;13.90;3.55;;;8.10;99.90;;;;;;10530981;28;20080;-64
2022/01/27 10:51:44;;;;;;;9.48;3.35;;;8.10;99.90;;;;;;10525778;28;20036;-66
2022/01/27 10:56:46;;;;;;;9.27;3.38;;;8.40;99.90;;;;;;10532136;28;20027;-65
2022/01/27 11:01:51;;;;;;;8.18;3.15;;;8.20;99.90;;;;;;10505315;28;20084;-65
2022/01/27 11:06:58;;;;;;;8.10;2.80;;;8.20;99.90;;;;;;10504384;28;20064;-67
2022/01/27 11:12:00;;;;;;;7.97;2.97;;;8.30;99.90;;;;;;10497641;28;20066;-67
2022/01/27 11:17:02;;;;;;;9.88;3.10;;;8.30;99.90;;;;;;10516532;28;20024;-65
2022/01/27 11:27:26;;;;;;;5.70;2.90;;;8.40;99.90;;;;;;10516328;28;20054;-64
2022/01/27 11:32:38;;;;;;;6.57;2.67;;;8.50;99.90;;;;;;10530191;28;20019;-66
2022/01/27 11:37:39;;;;;;;8.07;2.40;;;8.60;99.90;;;;;;10529568;28;20664;-62
2022/01/27 11:43:03;;;;;;;9.32;2.75;;;8.70;99.80;;;;;;10516350;28;20160;-64
2022/01/27 11:48:10;;;;;;;6.10;2.28;;;8.70;99.90;;;;;;10503031;28;20541;-64
2022/01/27 11:53:26;;;;;;;6.22;2.20;;;8.80;99.80;;;;;;10525392;28;20488;-65
2022/01/27 11:58:28;;;;;;;5.45;2.08;;;8.70;99.80;;;;;;10535543;28;20024;-68
2022/01/27 12:03:29;;;;;;;5.50;2.17;;;8.70;99.90;;;;;;10515085;28;20059;-66
2022/01/27 12:08:30;;;;;;;7.10;2.45;;;8.70;99.90;;;;;;10540301;28;20044;-64
2022/01/27 12:13:37;;;;;;;5.85;2.72;;;8.70;99.90;;;;;;10531527;28;20021;-68
2022/01/27 12:18:38;;;;;;;6.82;2.67;;;8.70;99.90;;;;;;10534761;28;20426;-65
2022/01/27 12:24:10;;;;;;;5.25;2.60;;;8.70;99.90;;;;;;10522863;28;20124;-66
2022/01/27 12:29:19;;;;;;;4.90;2.30;;;8.80;99.90;;;;;;10519907;28;20039;-69
2022/01/27 12:34:20;;;;;;;;;;;8.80;99.90;;;;;;10527951;28;20024;-66
2022/01/27 12:39:23;;;;;;;5.88;1.83;;;8.70;99.90;;;;;;10508925;28;20392;-67
2022/01/27 12:44:26;;;;;;;7.00;1.80;;;8.80;99.90;;;;;;10514114;28;20097;-66
2022/01/27 12:49:43;;;;;;;3.92;2.00;;;8.80;99.90;;;;;;10527161;28;20044;-68
2022/01/27 12:54:46;;;;;;;4.55;1.70;;;8.80;99.90;;;;;;10514094;28;20029;-68
2022/01/27 12:59:51;;;;;;;5.25;1.58;;;8.80;99.90;;;;;;10508489;28;20021;-67
2022/01/27 13:04:57;;;;;;;6.40;2.40;;;8.80;99.90;;;;;;10522126;28;20053;-66
2022/01/27 13:10:10;;;;;;;4.45;1.73;;;8.80;99.90;;;;;;10533328;28;20516;-67
2022/01/27 13:15:16;;;;;;;5.20;1.67;;;8.80;99.90;;;;;;10522187;28;20107;-66
2022/01/27 13:20:44;;;;;;;4.90;2.28;;;8.10;99.90;;;;;;10517590;28;20020;-66
2022/01/27 13:25:54;;;;;;;3.70;1.70;;;8.90;99.90;;;;;;10508185;28;20028;-67
2022/01/27 13:30:59;;;;;;;5.97;1.70;;;8.90;99.90;;;;;;10531719;28;20058;-66
2022/01/27 13:36:00;;;;;;;5.30;1.73;;;8.90;99.90;;;;;;10531031;28;20444;-66
2022/01/27 13:41:19;;;;;;;3.20;1.35;;;8.90;99.90;;;;;;10519958;28;20059;-65
2022/01/27 13:46:44;;;;;;;6.22;2.03;;;8.90;99.90;;;;;;10530869;28;20406;-67
2022/01/27 13:51:47;;;;;;;5.07;1.48;;;8.90;99.90;;;;;;10518315;28;20047;-67
2022/01/27 13:56:51;;;;;;;5.70;1.50;;;8.90;99.90;;;;;;10536283;28;20362;-67
2022/01/27 14:02:13;;;;;;;5.85;1.30;;;8.90;99.90;;;;;;10504261;28;20616;-67
2022/01/27 14:07:24;;;;;;;7.07;1.50;;;9.00;99.90;;;;;;10512865;28;20127;-65
2022/01/27 14:12:30;;;;;;;7.30;1.60;;;8.90;99.90;;;;;;10516710;28;20585;-67
2022/01/27 14:17:31;;;;;;;4.75;1.80;;;8.90;99.90;;;;;;10529666;28;20115;-66
2022/01/27 14:22:39;;;;;;;7.38;2.10;;;8.90;99.90;;;;;;10531247;28;20032;-65
2022/01/27 14:27:44;;;;;;;8.15;1.70;;;8.90;99.90;;;;;;10531711;28;20040;-65
2022/01/27 14:32:45;;;;;;;7.35;1.45;;;8.90;99.90;;;;;;10529879;28;20028;-64
2022/01/27 14:37:46;;;;;;;5.15;1.75;;;8.90;99.90;;;;;;10510874;28;20028;-65
2022/01/27 14:42:47;;;;;;;4.40;1.38;;;8.90;99.90;;;;;;10517655;28;20028;-61
2022/01/27 14:47:48;;;;;;;5.45;1.70;;;9.00;99.90;;;;;;10518950;28;20051;-62
2022/01/27 14:52:49;;;;;;;4.78;1.70;;;9.00;99.90;;;;;;10518463;28;20036;-62
2022/01/27 14:57:49;;;;;;;4.38;1.33;;;9.00;99.90;;;;;;10523701;28;20017;-63
2022/01/27 15:02:50;;;;;;;8.25;1.80;;;9.00;99.90;;;;;;10516220;28;20058;-63
2022/01/27 15:07:51;;;;;;;5.05;1.40;;;9.00;99.90;;;;;;10521662;28;20039;-63
2022/01/27 15:12:54;;;;;;;6.38;1.75;;;9.00;99.90;;;;;;10492407;28;20027;-63
2022/01/27 15:23:16;;;;;;;5.65;1.33;;;8.90;99.90;;;;;;10520199;28;20031;-64
2022/01/27 15:28:18;;;;;;;5.70;1.40;;;9.00;99.90;;;;;;10525261;28;20453;-63
2022/01/27 15:33:20;;;;;;;5.95;1.73;;;9.00;99.90;;;;;;10525670;28;20102;-62
2022/01/27 15:38:22;;;;;;;5.57;1.23;;;9.00;99.90;;;;;;10519155;28;20032;-63
2022/01/27 15:43:22;;;;;;;7.35;1.95;;;8.90;99.90;;;;;;10513437;28;20035;-63
2022/01/27 15:48:23;;;;;;;5.50;1.45;;;8.90;99.90;;;;;;10513231;28;20062;-61
2022/01/27 15:53:24;;;;;;;7.13;1.60;;;9.00;99.90;;;;;;10522561;28;20028;-61
2022/01/27 15:58:24;;;;;;;4.07;1.40;;;8.90;99.90;;;;;;10532990;28;20401;-63
2022/01/27 16:03:25;;;;;;;4.25;1.23;;;9.00;99.90;;;;;;10500642;28;20043;-62
2022/01/27 16:08:26;;;;;;;6.97;1.77;;;9.00;99.90;;;;;;10522142;28;20035;-62
2022/01/27 16:13:26;;;;;;;9.45;1.73;;;9.00;99.90;;;;;;10514116;28;20123;-63
2022/01/27 16:18:27;;;;;;;5.25;1.50;;;8.90;99.90;;;;;;10526005;28;20481;-62
2022/01/27 16:23:29;;;;;;;5.30;1.85;;;8.90;99.90;;;;;;10527467;28;20043;-62
2022/01/27 16:28:30;;;;;;;9.82;1.90;;;8.90;99.90;;;;;;10525244;28;20482;-62
2022/01/27 16:33:30;;;;;;;6.40;1.75;;;8.90;99.90;;;;;;10506789;28;20017;-64
2022/01/27 16:38:31;;;;;;;8.13;1.88;;;8.90;99.90;;;;;;10525635;28;20103;-66
2022/01/27 16:43:33;;;;;;;6.90;2.13;;;8.90;99.90;;;;;;10494876;28;20283;-64
2022/01/27 16:48:34;;;;;;;7.40;2.47;;;9.00;99.90;;;;;;10483331;28;20060;-63
2022/01/27 16:53:35;;;;;;;5.78;2.20;;;8.90;99.90;;;;;;10457422;28;20436;-65
2022/01/27 16:58:36;;;;;;;13.00;2.80;;;8.90;99.90;;;;;;10476416;28;20210;-65
2022/01/27 17:03:37;;;;;;;8.60;2.50;;;8.80;99.90;;;;;;10464158;28;20023;-65
2022/01/27 17:08:37;;;;;;;11.82;3.05;;;8.80;99.90;;;;;;10493326;28;20032;-65
2022/01/27 17:13:38;;;;;;;9.13;2.75;;;8.80;99.90;;;;;;10467735;28;20013;-65
2022/01/27 17:18:40;;;;;;;10.25;3.42;;;8.80;99.90;;;;;;10483260;28;20036;-64
2022/01/27 17:23:43;;;;;;;12.90;3.42;;;8.80;99.90;;;;;;10463907;28;20087;-65
2022/01/27 17:28:46;;;;;;;8.68;3.13;;;8.80;99.90;;;;;;10474848;28;20105;-65
2022/01/27 17:33:47;;;;;;;12.95;3.28;;;8.80;99.90;;;;;;10462122;28;20108;-66
2022/01/27 17:38:47;;;;;;;10.88;3.08;;;8.80;99.90;;;;;;10472695;28;20124;-65
2022/01/27 17:43:58;;;;;;;11.88;2.90;;;8.80;99.90;;;;;;10451508;28;20114;-65
2022/01/27 17:48:59;;;;;;;8.27;2.70;;;8.80;99.90;;;;;;10447102;28;20045;-65
2022/01/27 17:54:00;;;;;;;8.43;3.17;;;8.80;99.90;;;;;;10469049;28;20029;-64
2022/01/27 17:59:01;;;;;;;16.00;3.10;;;8.80;99.90;;;;;;10470926;28;20032;-66
2022/01/27 18:04:02;;;;;;;11.68;3.25;;;8.80;99.90;;;;;;10462118;28;20036;-66
2022/01/27 18:09:04;;;;;;;12.27;3.47;;;8.80;99.90;;;;;;10472942;28;20057;-67
2022/01/27 18:14:05;;;;;;;15.45;3.17;;;8.80;99.90;;;;;;10457562;28;20356;-67
2022/01/27 18:19:08;;;;;;;14.55;3.03;;;8.80;99.90;;;;;;10482725;28;20029;-67
2022/01/27 18:24:09;;;;;;;8.95;3.00;;;8.80;99.90;;;;;;10459275;28;20175;-66
2022/01/27 18:29:09;;;;;;;10.25;3.13;;;8.80;99.90;;;;;;10462668;28;20398;-66
2022/01/27 18:34:10;;;;;;;13.73;3.22;;;8.80;99.90;;;;;;10461317;28;20262;-69
2022/01/27 18:39:13;;;;;;;13.32;3.40;;;8.70;99.90;;;;;;10463068;28;20044;-68
2022/01/27 18:44:14;;;;;;;12.57;3.50;;;8.70;99.90;;;;;;10451313;28;20906;-63
2022/01/27 18:49:15;;;;;;;12.18;2.80;;;8.70;99.90;;;;;;10479100;28;20059;-66
2022/01/27 18:54:16;;;;;;;11.45;2.95;;;8.70;99.90;;;;;;10519657;28;20054;-68
2022/01/27 18:59:17;;;;;;;12.23;3.10;;;8.70;99.90;;;;;;10514901;28;20027;-64
2022/01/27 19:04:17;;;;;;;14.10;2.67;;;8.70;99.90;;;;;;10499935;28;20406;-66
2022/01/27 19:09:18;;;;;;;10.57;2.90;;;8.60;99.90;;;;;;10504781;28;20040;-65
2022/01/27 19:14:19;;;;;;;13.40;3.22;;;8.60;99.90;;;;;;10508262;28;20032;-67
2022/01/27 19:19:20;;;;;;;14.25;3.85;;;8.60;99.90;;;;;;10504498;28;20040;-63
2022/01/27 19:24:21;;;;;;;7.15;2.15;;;8.60;99.90;;;;;;10512976;28;20024;-66
2022/01/27 19:29:28;;;;;;;11.70;2.35;;;8.60;99.90;;;;;;10507580;28;20020;-66
2022/01/27 19:34:29;;;;;;;9.93;2.40;;;8.60;99.90;;;;;;10515394;28;20060;-66
2022/01/27 19:39:33;;;;;;;7.53;2.10;;;8.50;99.90;;;;;;10505633;28;20013;-63
2022/01/27 19:44:34;;;;;;;9.30;2.42;;;8.50;99.90;;;;;;10512291;28;20155;-66
2022/01/27 19:49:35;;;;;;;7.82;1.60;;;8.00;99.90;;;;;;10518460;28;20128;-68
2022/01/27 19:54:39;;;;;;;6.70;2.20;;;8.50;99.90;;;;;;10511038;28;20181;-66
2022/01/27 19:59:40;;;;;;;6.97;2.22;;;8.50;99.90;;;;;;10523523;28;20012;-66
2022/01/27 20:04:41;;;;;;;7.43;1.70;;;8.50;99.90;;;;;;10516378;28;20371;-65
2022/01/27 20:09:43;;;;;;;8.27;1.90;;;8.40;99.90;;;;;;10521594;28;20028;-63
2022/01/27 20:14:46;;;;;;;8.15;1.90;;;8.40;99.90;;;;;;10508055;28;20098;-65
2022/01/27 20:19:50;;;;;;;6.03;2.15;;;8.40;99.90;;;;;;10522436;28;20031;-63
2022/01/27 20:24:53;;;;;;;7.28;1.90;;;8.40;99.90;;;;;;10520873;28;20545;-65
2022/01/27 20:29:53;;;;;;;7.22;2.22;;;8.40;99.90;;;;;;10505267;28;20027;-65
2022/01/27 20:34:54;;;;;;;5.38;2.30;;;8.40;99.90;;;;;;10495316;28;20487;-66
2022/01/27 20:39:55;;;;;;;4.72;1.88;;;8.40;99.90;;;;;;10499931;28;20043;-64
2022/01/27 20:44:57;;;;;;;9.02;2.25;;;8.40;99.90;;;;;;10505565;28;20044;-65
2022/01/27 20:50:01;;;;;;;6.63;1.98;;;8.30;99.90;;;;;;10506106;28;20044;-68
2022/01/27 20:55:03;;;;;;;4.53;1.90;;;8.30;99.90;;;;;;10508426;28;20119;-68
2022/01/27 21:00:09;;;;;;;8.90;2.10;;;8.30;99.90;;;;;;10507091;28;20043;-64
2022/01/27 21:05:10;;;;;;;2.78;1.70;;;8.30;99.90;;;;;;10504159;28;20538;-68
2022/01/27 21:10:11;;;;;;;4.72;1.70;;;8.30;99.90;;;;;;10504007;28;20414;-66
2022/01/27 21:15:12;;;;;;;8.32;2.10;;;8.30;99.90;;;;;;10503104;28;20445;-67
2022/01/27 21:20:14;;;;;;;7.65;1.60;;;8.30;99.90;;;;;;10514653;28;20035;-67
2022/01/27 21:25:16;;;;;;;7.80;2.15;;;8.30;99.90;;;;;;10507041;28;20043;-65
2022/01/27 21:30:19;;;;;;;8.43;2.42;;;8.30;99.90;;;;;;10501548;28;20016;-64
2022/01/27 21:35:23;;;;;;;8.95;1.77;;;8.30;99.90;;;;;;10501854;28;20039;-66
2022/01/27 21:40:24;;;;;;;4.05;1.58;;;8.30;99.90;;;;;;10499788;28;20850;-68
2022/01/27 21:45:28;;;;;;;6.90;1.40;;;8.40;99.90;;;;;;10501048;28;20036;-66
2022/01/27 21:50:29;;;;;;;7.30;1.45;;;8.30;99.90;;;;;;10491743;28;20563;-68
2022/01/27 21:55:30;;;;;;;5.72;1.60;;;8.20;99.90;;;;;;10502970;28;20512;-69
2022/01/27 22:00:33;;;;;;;6.70;1.70;;;8.20;99.90;;;;;;10517146;28;20032;-69
2022/01/27 22:05:34;;;;;;;4.30;1.35;;;8.20;99.90;;;;;;10505162;28;20033;-70
2022/01/27 22:10:35;;;;;;;5.70;1.40;;;8.20;99.90;;;;;;10510859;28;20023;-68
2022/01/27 22:15:35;;;;;;;5.82;1.23;;;8.20;99.90;;;;;;10498819;28;20032;-68
2022/01/27 22:20:36;;;;;;;2.45;1.30;;;8.20;99.90;;;;;;10504186;28;20454;-67
2022/01/27 22:25:37;;;;;;;5.22;1.50;;;8.10;99.90;;;;;;10502213;28;20455;-69
2022/01/27 22:30:38;;;;;;;6.32;1.13;;;8.10;99.90;;;;;;10504073;28;20046;-68
2022/01/27 22:35:38;;;;;;;6.00;1.20;;;8.10;99.90;;;;;;10510792;28;20119;-71
2022/01/27 22:40:39;;;;;;;3.85;0.95;;;8.10;99.90;;;;;;10518695;28;20062;-66
2022/01/27 22:45:40;;;;;;;4.20;1.05;;;8.10;99.90;;;;;;10520042;28;20459;-68
2022/01/27 22:50:41;;;;;;;4.43;1.33;;;8.10;99.90;;;;;;10501651;28;20051;-63
2022/01/27 22:55:41;;;;;;;6.07;1.25;;;8.10;99.90;;;;;;10530823;28;20058;-67
2022/01/27 23:00:42;;;;;;;6.63;1.58;;;8.10;99.90;;;;;;10536911;28;20040;-67
2022/01/27 23:05:43;;;;;;;5.50;1.60;;;8.00;99.90;;;;;;10529854;28;20083;-69
2022/01/27 23:10:44;;;;;;;4.68;0.95;;;8.00;99.90;;;;;;10518021;28;20112;-69
2022/01/27 23:26:18;;;;;;;5.90;1.02;;;8.00;99.90;;;;;;10527656;28;20044;-67
2022/01/27 23:31:30;;;;;;;4.45;1.10;;;8.00;99.90;;;;;;10533629;28;20466;-67
2022/01/27 23:41:43;;;;;;;2.75;0.80;;;8.00;99.90;;;;;;10516090;28;20048;-67
2022/01/27 23:57:11;;;;;;;6.07;1.13;;;8.10;99.90;;;;;;10533406;28;20016;-67
